createdAt,value
2018-04-25T00:01:42.181Z,21.42
2018-04-25T00:04:11.491Z,26.27
2018-04-25T00:06:39.932Z,20.23
2018-04-25T00:09:08.443Z,24.48
2018-04-25T00:11:37.817Z,36.10
2018-04-25T00:14:06.216Z,14.05
2018-04-25T00:16:34.877Z,19.90
2018-04-25T00:19:04.137Z,23.77
2018-04-25T00:21:32.598Z,35.58
2018-04-25T00:24:01.060Z,25.20
2018-04-25T00:26:30.197Z,25.92
2018-04-25T00:28:58.577Z,32.42
2018-04-25T00:31:26.966Z,24.25
2018-04-25T00:33:57.112Z,23.45
2018-04-25T00:36:25.493Z,21.42
2018-04-25T00:38:53.849Z,23.45
2018-04-25T00:41:24.012Z,37.47
2018-04-25T00:43:52.389Z,35.47
2018-04-25T00:46:20.856Z,21.73
2018-04-25T00:48:49.370Z,34.53
2018-04-25T00:51:17.784Z,35.83
2018-04-25T00:53:46.296Z,37.90
2018-04-25T00:56:15.510Z,20.30
2018-04-25T00:58:44.952Z,28.50
2018-04-25T01:01:13.381Z,23.90
2018-04-25T01:03:42.017Z,25.20
2018-04-25T01:06:10.401Z,23.65
2018-04-25T01:08:38.819Z,24.37
2018-04-25T01:11:07.415Z,24.00
2018-04-25T01:13:36.857Z,24.15
2018-04-25T01:16:05.322Z,27.17
2018-04-25T01:18:35.250Z,26.15
2018-04-25T01:21:03.890Z,25.17
2018-04-25T01:23:32.269Z,27.02
2018-04-25T01:26:10.654Z,24.90
2018-04-25T01:28:41.042Z,31.30
2018-04-25T01:31:18.899Z,32.03
2018-04-25T01:33:55.206Z,25.05
2018-04-25T01:36:29.535Z,21.77
2018-04-25T01:39:03.930Z,30.55
2018-04-25T01:41:32.316Z,26.87
2018-04-25T01:44:00.709Z,21.17
2018-04-25T01:46:30.670Z,31.52
2018-04-25T01:49:13.672Z,22.40
2018-04-25T01:51:53.884Z,20.60
2018-04-25T01:54:35.468Z,29.27
2018-04-25T01:57:15.586Z,26.40
2018-04-25T01:59:56.168Z,20.08
2018-04-25T02:02:24.017Z,23.67
2018-04-25T02:04:52.378Z,18.30
2018-04-25T02:07:20.756Z,19.17
2018-04-25T02:09:49.152Z,20.67
2018-04-25T02:12:17.577Z,19.17
2018-04-25T02:14:46.560Z,17.65
2018-04-25T02:17:15.086Z,18.45
2018-04-25T02:19:43.491Z,17.23
2018-04-25T02:22:11.906Z,17.52
2018-04-25T02:24:40.319Z,12.90
2018-04-25T02:27:08.817Z,24.58
2018-04-25T02:29:37.307Z,19.95
2018-04-25T02:32:05.686Z,25.15
2018-04-25T02:34:34.054Z,22.73
2018-04-25T02:37:02.443Z,18.75
2018-04-25T02:39:30.822Z,22.15
2018-04-25T02:41:59.252Z,21.73
2018-04-25T02:44:28.391Z,23.90
2018-04-25T02:46:56.742Z,22.55
2018-04-25T02:49:25.122Z,21.70
2018-04-25T02:51:53.527Z,27.17
2018-04-25T02:54:21.924Z,29.67
2018-04-25T02:56:50.338Z,26.85
2018-04-25T02:59:18.742Z,26.52
2018-04-25T03:01:47.132Z,36.78
2018-04-25T03:04:15.708Z,27.20
2018-04-25T03:06:44.193Z,31.67
2018-04-25T03:09:12.607Z,29.63
2018-04-25T03:11:41.011Z,39.78
2018-04-25T03:14:09.565Z,34.47
2018-04-25T03:16:38.106Z,33.47
2018-04-25T03:19:06.595Z,38.75
2018-04-25T03:21:35.095Z,33.35
2018-04-25T03:24:03.510Z,34.97
2018-04-25T03:26:31.876Z,46.33
2018-04-25T03:29:01.138Z,45.03
2018-04-25T03:31:29.511Z,43.50
2018-04-25T03:33:57.892Z,50.78
2018-04-25T03:36:26.289Z,50.40
2018-04-25T03:38:54.744Z,59.25
2018-04-25T03:41:23.131Z,55.88
2018-04-25T03:43:51.517Z,67.45
2018-04-25T03:46:19.895Z,63.65
2018-04-25T03:48:48.354Z,66.62
2018-04-25T03:51:16.800Z,74.50
2018-04-25T03:53:45.261Z,88.50
2018-04-25T03:56:13.808Z,74.15
2018-04-25T03:58:43.823Z,81.20
2018-04-25T04:01:12.307Z,80.95
2018-04-25T04:03:40.792Z,85.75
2018-04-25T04:06:09.779Z,93.95
2018-04-25T04:08:38.365Z,92.57
2018-04-25T04:11:06.881Z,101.35
2018-04-25T04:13:35.435Z,95.75
2018-04-25T04:16:05.243Z,97.37
2018-04-25T04:18:35.091Z,96.93
2018-04-25T04:21:04.667Z,99.15
2018-04-25T04:23:33.161Z,112.40
2018-04-25T04:26:01.551Z,105.55
2018-04-25T04:28:30.668Z,108.05
2018-04-25T04:30:59.065Z,109.43
2018-04-25T04:33:27.440Z,111.47
2018-04-25T04:35:56.873Z,107.13
2018-04-25T04:38:25.283Z,118.18
2018-04-25T04:40:53.683Z,103.23
2018-04-25T04:43:22.939Z,113.13
2018-04-25T04:45:51.361Z,102.70
2018-04-25T04:48:19.741Z,97.33
2018-04-25T04:50:48.144Z,101.03
2018-04-25T04:53:16.496Z,92.67
2018-04-25T04:55:44.969Z,85.77
2018-04-25T04:58:13.907Z,90.93
2018-04-25T05:00:42.310Z,78.87
2018-04-25T05:03:10.953Z,80.37
2018-04-25T05:05:39.483Z,84.27
2018-04-25T05:08:07.886Z,73.23
2018-04-25T05:10:36.317Z,74.80
2018-04-25T05:13:04.908Z,75.33
2018-04-25T05:15:33.257Z,80.43
2018-04-25T05:18:01.689Z,68.07
2018-04-25T05:20:30.078Z,78.17
2018-04-25T05:22:58.398Z,65.87
2018-04-25T05:25:26.795Z,67.47
2018-04-25T05:27:55.206Z,68.30
2018-04-25T05:30:23.642Z,67.07
2018-04-25T05:32:52.093Z,66.33
2018-04-25T05:35:20.565Z,60.97
2018-04-25T05:37:48.951Z,60.17
2018-04-25T05:40:17.382Z,65.37
2018-04-25T05:42:45.814Z,66.70
2018-04-25T05:45:14.195Z,63.43
2018-04-25T05:47:42.579Z,75.70
2018-04-25T05:50:10.995Z,64.97
2018-04-25T05:52:39.485Z,65.47
2018-04-25T05:55:07.904Z,62.83
2018-04-25T05:57:36.294Z,60.90
2018-04-25T06:00:04.774Z,58.43
2018-04-25T06:02:33.206Z,62.83
2018-04-25T06:05:02.224Z,53.70
2018-04-25T06:07:30.573Z,49.63
2018-04-25T06:09:59.008Z,48.30
2018-04-25T06:12:28.231Z,44.83
2018-04-25T06:14:56.613Z,42.30
2018-04-25T06:17:25.079Z,36.40
2018-04-25T06:19:53.794Z,37.30
2018-04-25T06:22:22.177Z,40.73
2018-04-25T06:24:50.518Z,35.20
2018-04-25T06:27:18.921Z,33.20
2018-04-25T06:29:47.266Z,40.33
2018-04-25T06:32:15.701Z,29.83
2018-04-25T06:34:44.630Z,35.97
2018-04-25T06:37:13.032Z,31.10
2018-04-25T06:39:41.514Z,30.60
2018-04-25T06:42:10.083Z,32.87
2018-04-25T06:44:38.666Z,29.10
2018-04-25T06:47:07.196Z,25.33
2018-04-25T06:49:35.836Z,23.37
2018-04-25T06:52:04.240Z,25.10
2018-04-25T06:54:32.691Z,20.83
2018-04-25T06:57:01.172Z,25.23
2018-04-25T06:59:29.763Z,32.63
2018-04-25T07:01:58.132Z,22.57
2018-04-25T07:04:26.520Z,17.27
2018-04-25T07:06:54.984Z,19.80
2018-04-25T07:09:23.354Z,14.30
2018-04-25T07:11:51.992Z,12.93
2018-04-25T07:17:12.495Z,11.90
2018-04-25T07:19:41.015Z,8.87
2018-04-25T07:22:09.419Z,9.83
2018-04-25T07:24:39.354Z,10.10
2018-04-25T07:27:07.836Z,7.70
2018-04-25T07:29:36.382Z,8.03
2018-04-25T07:32:05.247Z,13.27
2018-04-25T07:34:34.139Z,9.00
2018-04-25T07:37:02.497Z,9.33
2018-04-25T07:39:30.872Z,7.17
2018-04-25T07:41:59.296Z,9.90
2018-04-25T07:44:27.572Z,7.77
2018-04-25T07:46:56.289Z,7.83
2018-04-25T07:49:24.651Z,10.43
2018-04-25T07:51:55.760Z,10.83
2018-04-25T07:54:24.193Z,12.70
2018-04-25T07:56:52.533Z,12.53
2018-04-25T07:59:20.888Z,9.97
2018-04-25T08:01:50.339Z,11.57
2018-04-25T08:04:18.674Z,10.70
2018-04-25T08:06:47.083Z,11.87
2018-04-25T08:09:15.501Z,8.90
2018-04-25T08:11:43.955Z,12.10
2018-04-25T08:14:24.344Z,16.17
2018-04-25T08:17:04.424Z,12.60
2018-04-25T08:19:44.632Z,20.90
2018-04-25T08:22:13.018Z,13.03
2018-04-25T08:24:41.417Z,12.00
2018-04-25T08:27:11.336Z,3.63
2018-04-25T08:29:39.757Z,7.90
2018-04-25T08:32:08.278Z,5.13
2018-04-25T08:34:36.862Z,18.07
2018-04-25T08:37:05.466Z,13.97
2018-04-25T08:39:33.886Z,13.83
2018-04-25T08:42:06.423Z,10.80
2018-04-25T08:44:34.921Z,12.13
2018-04-25T08:47:03.298Z,18.63
2018-04-25T08:49:32.109Z,12.77
2018-04-25T08:52:00.497Z,15.20
2018-04-25T08:54:28.842Z,23.15
2018-04-25T08:56:57.245Z,12.40
2018-04-25T08:59:25.623Z,19.42
2018-04-25T09:01:53.976Z,12.35
2018-04-25T09:04:22.356Z,10.23
2018-04-25T09:06:50.760Z,9.30
2018-04-25T09:09:19.116Z,11.50
2018-04-25T09:11:47.576Z,11.07
2018-04-25T09:14:16.228Z,11.63
2018-04-25T09:16:44.662Z,10.02
2018-04-25T09:19:16.193Z,12.82
2018-04-25T09:21:44.653Z,12.80
2018-04-25T09:24:14.072Z,12.37
2018-04-25T09:26:42.621Z,24.55
2018-04-25T09:29:11.025Z,10.50
2018-04-25T09:31:39.763Z,7.47
2018-04-25T09:34:08.294Z,6.80
2018-04-25T09:36:36.704Z,11.10
2018-04-25T09:39:05.287Z,9.60
2018-04-25T09:41:34.511Z,10.52
2018-04-25T09:44:02.900Z,12.90
2018-04-25T09:46:31.268Z,3.12
2018-04-25T09:48:59.721Z,4.85
2018-04-25T09:51:28.094Z,4.95
2018-04-25T09:53:56.453Z,5.25
2018-04-25T09:56:25.311Z,4.22
2018-04-25T09:58:53.664Z,4.65
2018-04-25T10:01:27.638Z,6.28
2018-04-25T10:03:56.008Z,4.00
2018-04-25T10:06:24.389Z,8.95
2018-04-25T10:08:52.792Z,5.12
2018-04-25T10:11:21.155Z,2.45
2018-04-25T10:13:49.469Z,2.78
2018-04-25T10:16:18.764Z,2.60
2018-04-25T10:18:47.223Z,4.35
2018-04-25T10:21:15.598Z,2.15
2018-04-25T10:23:43.998Z,1.83
2018-04-25T10:26:12.423Z,2.37
2018-04-25T10:28:40.912Z,3.33
2018-04-25T10:31:09.895Z,5.95
2018-04-25T10:33:38.291Z,2.65
2018-04-25T10:36:07.078Z,1.58
2018-04-25T10:38:35.532Z,3.35
2018-04-25T10:41:03.982Z,1.58
2018-04-25T10:43:32.388Z,2.08
2018-04-25T10:46:00.768Z,1.80
2018-04-25T10:48:29.328Z,3.53
2018-04-25T10:50:57.737Z,4.95
2018-04-25T10:53:26.116Z,5.03
2018-04-25T10:55:55.419Z,3.20
2018-04-25T10:58:23.790Z,3.67
2018-04-25T11:00:52.198Z,3.47
2018-04-25T11:03:20.627Z,2.97
2018-04-25T11:05:49.000Z,1.42
2018-04-25T11:08:18.051Z,5.75
2018-04-25T11:10:46.480Z,1.37
2018-04-25T11:13:14.919Z,2.30
2018-04-25T11:15:43.363Z,1.95
2018-04-25T11:18:11.836Z,2.83
2018-04-25T11:20:40.316Z,2.83
2018-04-25T11:23:08.781Z,1.48
2018-04-25T11:25:38.366Z,1.12
2018-04-25T11:28:06.821Z,0.80
2018-04-25T11:30:35.456Z,1.12
2018-04-25T11:33:03.899Z,1.20
2018-04-25T11:35:32.248Z,1.58
2018-04-25T11:38:00.702Z,0.80
2018-04-25T11:40:28.973Z,0.73
2018-04-25T11:42:57.329Z,0.90
2018-04-25T11:45:26.139Z,0.80
2018-04-25T11:47:54.495Z,0.70
2018-04-25T11:50:22.874Z,0.70
2018-04-25T11:52:51.275Z,1.62
2018-04-25T11:55:19.684Z,3.50
2018-04-25T11:57:48.061Z,8.38
2018-04-25T12:00:16.505Z,0.93
2018-04-25T12:02:45.961Z,0.80
2018-04-25T12:05:14.486Z,0.80
2018-04-25T12:07:43.926Z,2.20
2018-04-25T12:10:12.349Z,2.27
2018-04-25T12:12:40.763Z,1.43
2018-04-25T12:15:09.174Z,1.13
2018-04-25T12:17:37.576Z,0.90
2018-04-25T12:20:06.123Z,1.40
2018-04-25T12:22:35.461Z,3.83
2018-04-25T12:25:03.854Z,4.23
2018-04-25T12:27:32.251Z,0.90
2018-04-25T12:30:01.491Z,1.47
2018-04-25T12:32:29.827Z,0.97
2018-04-25T12:34:58.177Z,1.37
2018-04-25T12:37:26.583Z,1.27
2018-04-25T12:39:54.937Z,1.27
2018-04-25T12:42:23.264Z,1.67
2018-04-25T12:44:51.951Z,1.40
2018-04-25T12:47:20.387Z,2.53
2018-04-25T12:49:48.687Z,1.83
2018-04-25T12:52:17.138Z,1.20
2018-04-25T12:54:45.517Z,1.43
2018-04-25T12:57:13.912Z,6.03
2018-04-25T12:59:42.469Z,2.20
2018-04-25T13:02:10.893Z,1.00
2018-04-25T13:04:39.346Z,1.87
2018-04-25T13:07:08.111Z,1.40
2018-04-25T13:09:36.574Z,1.43
2018-04-25T13:12:04.967Z,1.20
2018-04-25T13:14:33.550Z,5.50
2018-04-25T13:17:01.922Z,1.20
2018-04-25T13:19:30.299Z,10.10
2018-04-25T13:21:58.655Z,3.43
2018-04-25T13:24:26.993Z,1.47
2018-04-25T13:26:55.339Z,1.87
2018-04-25T13:29:24.117Z,3.63
2018-04-25T13:31:52.575Z,1.30
2018-04-25T13:34:24.974Z,3.43
2018-04-25T13:36:53.761Z,8.33
2018-04-25T13:39:23.165Z,11.57
2018-04-25T13:41:51.625Z,3.43
2018-04-25T13:44:20.040Z,9.73
2018-04-25T13:46:48.517Z,2.77
2018-04-25T13:49:16.986Z,6.27
2018-04-25T13:51:45.707Z,8.93
2018-04-25T13:54:14.162Z,4.70
2018-04-25T13:56:42.586Z,5.27
2018-04-25T13:59:11.962Z,6.23
2018-04-25T14:01:40.540Z,6.73
2018-04-25T14:04:08.946Z,1.33
2018-04-25T14:06:38.089Z,3.77
2018-04-25T14:09:06.680Z,6.60
2018-04-25T14:11:35.215Z,7.13
2018-04-25T14:14:07.556Z,5.33
2018-04-25T14:16:36.134Z,4.17
2018-04-25T14:19:04.510Z,6.23
2018-04-25T14:21:33.298Z,10.93
2018-04-25T14:24:01.659Z,2.37
2018-04-25T14:26:30.086Z,7.30
2018-04-25T14:28:58.757Z,8.50
2018-04-25T14:31:27.122Z,5.50
2018-04-25T14:33:55.464Z,6.13
2018-04-25T14:36:23.884Z,3.90
2018-04-25T14:38:52.362Z,10.40
2018-04-25T14:41:20.709Z,2.93
2018-04-25T14:43:51.035Z,2.40
2018-04-25T14:46:19.450Z,6.03
2018-04-25T14:48:47.816Z,3.77
2018-04-25T14:51:16.807Z,7.40
2018-04-25T14:53:45.267Z,8.23
2018-04-25T14:56:13.741Z,8.13
2018-04-25T14:58:42.151Z,15.23
2018-04-25T15:01:11.142Z,10.70
2018-04-25T15:03:39.496Z,7.47
2018-04-25T15:06:08.164Z,8.90
2018-04-25T15:08:36.513Z,6.27
2018-04-25T15:11:05.093Z,11.00
2018-04-25T15:13:33.541Z,11.43
2018-04-25T15:16:01.869Z,11.47
2018-04-25T15:18:30.194Z,5.50
2018-04-25T15:20:59.085Z,6.90
2018-04-25T15:23:27.406Z,4.90
2018-04-25T15:25:55.802Z,2.67
2018-04-25T15:28:25.951Z,2.95
2018-04-25T15:30:54.286Z,7.00
2018-04-25T15:33:22.621Z,7.03
2018-04-25T15:35:52.062Z,4.00
2018-04-25T15:38:20.414Z,6.10
2018-04-25T15:40:48.809Z,5.50
2018-04-25T15:43:17.756Z,13.40
2018-04-25T15:45:46.095Z,9.30
2018-04-25T15:48:14.544Z,4.93
2018-04-25T15:50:43.880Z,6.90
2018-04-25T15:53:12.363Z,11.00
2018-04-25T15:55:41.024Z,4.50
2018-04-25T15:58:10.551Z,5.87
2018-04-25T16:00:39.157Z,6.80
2018-04-25T16:03:07.723Z,4.47
2018-04-25T16:05:36.398Z,5.37
2018-04-25T16:08:04.850Z,7.57
2018-04-25T16:10:33.347Z,4.63
2018-04-25T16:13:02.195Z,6.03
2018-04-25T16:15:30.537Z,2.53
2018-04-25T16:17:58.874Z,5.53
2018-04-25T16:20:27.247Z,5.73
2018-04-25T16:22:55.667Z,9.00
2018-04-25T16:25:24.068Z,6.07
2018-04-25T16:27:52.752Z,6.70
2018-04-25T16:30:21.106Z,8.38
2018-04-25T16:32:49.487Z,4.00
2018-04-25T16:35:18.684Z,6.72
2018-04-25T16:37:47.297Z,7.85
2018-04-25T16:40:15.913Z,9.43
2018-04-25T16:42:44.499Z,11.45
2018-04-25T16:45:13.040Z,8.50
2018-04-25T16:47:41.743Z,8.57
2018-04-25T16:50:10.588Z,3.47
2018-04-25T16:52:39.146Z,3.67
2018-04-25T16:55:07.620Z,8.90
2018-04-25T16:57:36.174Z,3.60
2018-04-25T17:00:05.006Z,4.10
2018-04-25T17:02:34.806Z,4.62
2018-04-25T17:05:06.030Z,5.68
2018-04-25T17:07:35.607Z,6.70
2018-04-25T17:10:05.079Z,7.67
2018-04-25T17:12:33.809Z,5.85
2018-04-25T17:15:02.160Z,8.90
2018-04-25T17:17:30.739Z,2.20
2018-04-25T17:19:59.775Z,2.90
2018-04-25T17:22:28.157Z,8.37
2018-04-25T17:24:56.469Z,4.17
2018-04-25T17:27:24.846Z,6.18
2018-04-25T17:29:54.828Z,8.23
2018-04-25T17:32:25.219Z,2.97
2018-04-25T17:34:56.227Z,11.80
2018-04-25T17:37:25.172Z,4.87
2018-04-25T17:39:54.410Z,5.60
2018-04-25T17:42:22.923Z,1.87
2018-04-25T17:44:51.277Z,4.50
2018-04-25T17:47:19.682Z,11.47
2018-04-25T17:49:48.063Z,5.57
2018-04-25T17:52:16.519Z,2.60
2018-04-25T17:54:44.947Z,4.73
2018-04-25T17:57:13.408Z,5.20
2018-04-25T17:59:41.815Z,2.30
2018-04-25T18:02:10.290Z,9.17
2018-04-25T18:04:39.073Z,7.47
2018-04-25T18:07:07.628Z,4.40
2018-04-25T18:09:36.128Z,4.60
2018-04-25T18:12:04.541Z,2.20
2018-04-25T18:14:32.898Z,3.37
2018-04-25T18:17:01.364Z,1.70
2018-04-25T18:19:29.939Z,2.80
2018-04-25T18:21:58.278Z,2.67
2018-04-25T18:24:26.635Z,4.93
2018-04-25T18:26:56.024Z,8.05
2018-04-25T18:29:24.436Z,3.12
2018-04-25T18:31:52.783Z,7.75
2018-04-25T18:34:21.245Z,2.87
2018-04-25T18:36:49.578Z,3.90
2018-04-25T18:39:17.975Z,2.45
2018-04-25T18:41:46.603Z,4.00
2018-04-25T18:44:15.013Z,4.43
2018-04-25T18:46:43.550Z,4.57
2018-04-25T18:49:11.986Z,7.60
2018-04-25T18:51:40.556Z,6.00
2018-04-25T18:54:08.946Z,11.18
2018-04-25T18:56:37.506Z,4.15
2018-04-25T18:59:05.981Z,8.18
2018-04-25T19:01:34.523Z,6.50
2018-04-25T19:04:04.209Z,8.88
2018-04-25T19:06:32.794Z,8.60
2018-04-25T19:09:01.328Z,14.15
2018-04-25T19:11:30.291Z,11.48
2018-04-25T19:13:58.674Z,7.75
2018-04-25T19:16:29.035Z,10.02
2018-04-25T19:18:57.511Z,7.20
2018-04-25T19:21:25.858Z,9.98
2018-04-25T19:23:54.204Z,7.15
2018-04-25T19:26:22.618Z,3.53
2018-04-25T19:28:50.994Z,10.13
2018-04-25T19:31:19.375Z,8.43
2018-04-25T19:33:48.163Z,7.15
2018-04-25T19:36:16.623Z,9.63
2018-04-25T19:38:45.038Z,4.07
2018-04-25T19:41:13.584Z,9.98
2018-04-25T19:43:42.437Z,7.12
2018-04-25T19:46:11.197Z,5.82
2018-04-25T19:48:39.809Z,5.93
2018-04-25T19:51:08.275Z,6.53
2018-04-25T19:53:36.647Z,8.52
2018-04-25T19:56:05.255Z,9.35
2018-04-25T19:58:33.721Z,11.85
2018-04-25T20:01:02.142Z,12.15
2018-04-25T20:03:30.592Z,7.40
2018-04-25T20:05:58.996Z,15.30
2018-04-25T20:08:27.371Z,12.50
2018-04-25T20:10:55.922Z,12.60
2018-04-25T20:13:26.267Z,13.10
2018-04-25T20:15:54.599Z,15.00
2018-04-25T20:18:23.351Z,13.62
2018-04-25T20:20:51.698Z,13.27
2018-04-25T20:23:20.217Z,9.52
2018-04-25T20:25:49.106Z,15.90
2018-04-25T20:28:17.484Z,11.70
2018-04-25T20:30:46.044Z,9.48
2018-04-25T20:33:14.535Z,8.15
2018-04-25T20:35:43.074Z,18.83
2018-04-25T20:38:11.481Z,21.98
2018-04-25T20:40:40.010Z,15.23
2018-04-25T20:43:08.420Z,13.05
2018-04-25T20:45:36.801Z,16.00
2018-04-25T20:48:06.004Z,14.68
2018-04-25T20:50:34.456Z,20.00
2018-04-25T20:53:02.837Z,18.67
2018-04-25T20:55:31.719Z,16.67
2018-04-25T20:58:00.101Z,17.58
2018-04-25T21:00:28.617Z,17.98
2018-04-25T21:02:57.014Z,19.67
2018-04-25T21:05:25.394Z,23.05
2018-04-25T21:07:53.746Z,15.10
2018-04-25T21:10:22.446Z,17.08
2018-04-25T21:12:50.811Z,22.40
2018-04-25T21:15:19.253Z,24.60
2018-04-25T21:17:47.909Z,24.05
2018-04-25T21:20:16.369Z,20.23
2018-04-25T21:22:44.791Z,23.65
2018-04-25T21:25:13.319Z,25.58
2018-04-25T21:27:41.675Z,24.23
2018-04-25T21:30:10.213Z,26.87
2018-04-25T21:32:40.154Z,26.27
2018-04-25T21:35:08.511Z,29.17
2018-04-25T21:37:36.960Z,27.92
2018-04-25T21:40:05.435Z,29.15
2018-04-25T21:42:34.392Z,34.83
2018-04-25T21:45:02.766Z,24.77
2018-04-25T21:47:31.166Z,24.10
2018-04-25T21:49:59.522Z,28.15
2018-04-25T21:52:27.871Z,23.17
2018-04-25T21:54:56.353Z,35.17
2018-04-25T21:57:24.722Z,32.55
2018-04-25T21:59:53.088Z,31.70
2018-04-25T22:02:22.134Z,36.20
2018-04-25T22:04:50.477Z,27.27
2018-04-25T22:07:18.868Z,23.80
2018-04-25T22:09:47.284Z,18.83
2018-04-25T22:12:15.678Z,21.55
2018-04-25T22:14:44.074Z,15.93
2018-04-25T22:17:12.520Z,23.23
2018-04-25T22:19:40.866Z,14.82
2018-04-25T22:22:09.357Z,11.65
2018-04-25T22:24:38.035Z,18.27
2018-04-25T22:27:06.540Z,13.62
2018-04-25T22:29:34.943Z,19.40
2018-04-25T22:32:03.748Z,10.75
2018-04-25T22:34:32.095Z,12.65
2018-04-25T22:37:00.424Z,14.90
2018-04-25T22:39:28.852Z,12.23
2018-04-25T22:41:57.177Z,15.10
2018-04-25T22:44:25.531Z,24.55
2018-04-25T22:46:54.829Z,14.98
2018-04-25T22:49:23.199Z,14.95
2018-04-25T22:51:51.547Z,14.68
2018-04-25T22:54:20.589Z,29.92
2018-04-25T22:56:48.921Z,15.00
2018-04-25T22:59:17.374Z,12.02
2018-04-25T23:01:45.904Z,16.60
2018-04-25T23:04:14.311Z,13.48
2018-04-25T23:06:42.732Z,20.08
2018-04-25T23:09:11.131Z,10.02
2018-04-25T23:11:39.498Z,8.10
2018-04-25T23:14:07.922Z,9.57
2018-04-25T23:16:37.187Z,11.70
2018-04-25T23:19:05.619Z,9.70
2018-04-25T23:21:34.032Z,16.87
2018-04-25T23:24:02.862Z,7.87
2018-04-25T23:26:31.854Z,11.40
2018-04-25T23:29:00.202Z,14.20
2018-04-25T23:31:28.548Z,16.55
2018-04-25T23:33:56.941Z,9.15
2018-04-25T23:36:25.337Z,14.70
2018-04-25T23:38:54.060Z,10.85
2018-04-25T23:41:22.394Z,15.35
2018-04-25T23:43:50.751Z,25.40
2018-04-25T23:46:20.214Z,11.73
2018-04-25T23:48:48.597Z,16.85
2018-04-25T23:51:16.921Z,12.37
2018-04-25T23:53:45.327Z,18.73
2018-04-25T23:56:13.864Z,14.23
2018-04-25T23:58:42.220Z,16.30
